Time;durP1;ratioP1;P1;durP2;ratioP2;P2;SDS_P1;SDS_P2;PMS_P1;PMS_P2;Temp;Humidity;BMP_temperature;BMP_pressure;BME280_temperature;BME280_humidity;BME280_pressure;Samples;Min_cycle;Max_cycle;Signal;HPM_P1;HPM_P2
2024/02/03 00:02:21;;;;;;;14.10;5.50;;;;;;;-0.21;78.11;99297.06;79690;1295;3018793;-68
2024/02/03 00:04:47;;;;;;;16.90;5.20;;;;;;;-0.20;78.54;99291.02;79627;1298;3011928;-70
2024/02/03 00:07:15;;;;;;;15.90;6.40;;;;;;;-0.23;78.81;99289.86;78413;1296;3026532;-70
2024/02/03 00:09:42;;;;;;;16.40;5.50;;;;;;;-0.20;78.97;99292.90;79652;1295;3018645;-73
2024/02/03 00:12:10;;;;;;;10.90;4.20;;;;;;;-0.11;78.80;99290.48;79575;1294;3011813;-70
2024/02/03 00:14:38;;;;;;;10.20;4.40;;;;;;;0.64;78.19;99285.27;78865;1298;3049931;-69
2024/02/03 00:17:05;;;;;;;12.10;4.00;;;;;;;0.91;76.69;99280.16;79744;1296;3018451;-70
2024/02/03 00:19:31;;;;;;;7.90;3.00;;;;;;;1.19;75.49;99282.94;79581;1295;3011844;-68
2024/02/03 00:21:59;;;;;;;13.60;3.30;;;;;;;0.96;75.53;99282.81;78384;1298;3028585;-70
2024/02/03 00:24:26;;;;;;;8.90;3.30;;;;;;;0.74;76.24;99283.31;79681;1295;3013976;-68
2024/02/03 00:26:53;;;;;;;10.80;4.00;;;;;;;0.73;76.40;99285.58;79655;1298;3011899;-66
2024/02/03 00:29:21;;;;;;;14.60;4.30;;;;;;;0.58;76.74;99288.52;78418;1295;3025821;-68
2024/02/03 00:31:47;;;;;;;8.90;4.10;;;;;;;0.49;77.20;99287.52;79611;1295;3012885;-72
2024/02/03 00:34:14;;;;;;;10.60;3.70;;;;;;;0.35;77.91;99292.30;79584;1298;3011574;-71
2024/02/03 00:36:43;;;;;;;10.80;4.00;;;;;;;0.32;78.00;99287.71;78366;1298;3026570;-68
2024/02/03 00:39:10;;;;;;;11.90;4.00;;;;;;;0.26;78.20;99286.98;79605;1294;3013649;-67
2024/02/03 00:41:37;;;;;;;10.40;3.90;;;;;;;0.20;78.64;99287.10;79596;1295;3011815;-68
2024/02/03 00:44:05;;;;;;;10.10;4.10;;;;;;;0.17;78.96;99284.95;78382;1295;3048421;-67
2024/02/03 00:46:32;;;;;;;11.20;2.70;;;;;;;0.07;79.97;99277.39;79564;1296;3014876;-67
2024/02/03 00:48:58;;;;;;;12.40;4.00;;;;;;;1.01;78.95;99272.84;79566;1296;3011710;-69
2024/02/03 00:51:26;;;;;;;12.70;3.80;;;;;;;1.49;76.97;99274.20;78590;1298;3052220;-68
2024/02/03 00:53:53;;;;;;;11.80;4.00;;;;;;;1.67;75.53;99274.06;79567;1298;3013522;-67
2024/02/03 00:56:19;;;;;;;12.40;3.30;;;;;;;1.18;76.26;99268.98;79571;1296;3011694;-69
2024/02/03 00:58:47;;;;;;;11.50;3.70;;;;;;;0.99;76.71;99262.89;78382;1298;3028252;-68
2024/02/03 01:01:14;;;;;;;14.60;3.70;;;;;;;0.85;77.43;99257.53;79680;1295;3018165;-64
2024/02/03 01:03:44;;;;;;;9.80;3.20;;;;;;;0.80;77.26;99256.98;79602;1298;3013253;-68
2024/02/03 01:06:11;;;;;;;8.90;3.40;;;;;;;0.59;78.28;99259.02;78350;1298;3051931;-64
2024/02/03 01:08:38;;;;;;;8.70;2.90;;;;;;;0.53;78.17;99260.89;79603;1298;3012947;-66
2024/02/03 01:26:00;;;;;;;11.90;3.60;;;;;;;-0.07;81.60;99243.06;80623;1299;3013792;-65
2024/02/03 01:28:27;;;;;;;10.90;3.70;;;;;;;0.58;82.20;99234.73;78958;1307;3013415;-64
2024/02/03 01:30:54;;;;;;;8.50;3.00;;;;;;;1.31;79.30;99240.36;79192;1304;3011493;-73
2024/02/03 01:33:22;;;;;;;14.20;3.60;;;;;;;1.46;78.20;99236.69;78013;1305;3052529;-69
2024/02/03 01:35:48;;;;;;;12.30;3.80;;;;;;;1.34;77.64;99238.55;79512;1304;3018646;-73
2024/02/03 01:38:15;;;;;;;11.80;4.00;;;;;;;1.07;78.37;99230.61;79182;1304;3013711;-66
2024/02/03 01:40:43;;;;;;;8.90;4.20;;;;;;;1.04;78.10;99233.27;78313;1299;3026192;-68
2024/02/03 01:43:12;;;;;;;18.10;6.20;;;;;;;0.72;78.96;99228.04;79458;1301;3013713;-65
2024/02/03 01:45:39;;;;;;;11.90;5.10;;;;;;;0.62;79.72;99231.02;79327;1298;3011531;-65
2024/02/03 01:48:07;;;;;;;16.90;6.10;;;;;;;0.40;80.78;99227.73;78354;1297;3052270;-68
2024/02/03 01:50:34;;;;;;;18.80;6.40;;;;;;;0.39;81.02;99228.11;79388;1300;3013810;-65
2024/02/03 01:53:02;;;;;;;19.80;5.20;;;;;;;0.24;81.57;99230.17;79171;1298;3011546;-69
2024/02/03 01:55:30;;;;;;;12.00;4.50;;;;;;;0.28;82.04;99224.73;78230;1301;3048835;-70
2024/02/03 01:57:59;;;;;;;13.60;4.40;;;;;;;0.81;81.55;99221.60;79269;1298;3013954;-66
2024/02/03 02:00:29;;;;;;;14.90;3.60;;;;;;;1.27;79.80;99223.89;78878;1297;3011576;-66
2024/02/03 02:02:56;;;;;;;14.50;4.50;;;;;;;1.33;78.65;99224.95;79403;1297;3013044;-72
2024/02/03 02:05:24;;;;;;;17.40;3.80;;;;;;;1.40;78.48;99215.92;79246;1301;3011751;-68
2024/02/03 02:07:52;;;;;;;7.70;3.20;;;;;;;1.21;78.67;99216.98;77955;1301;3050713;-68
2024/02/03 02:10:19;;;;;;;12.20;5.00;;;;;;;1.07;78.78;99215.09;79691;1299;3012760;-72
2024/02/03 02:12:46;;;;;;;11.30;4.60;;;;;;;0.88;79.58;99215.73;79253;1300;3011851;-63
2024/02/03 02:15:14;;;;;;;13.20;4.80;;;;;;;0.43;81.25;99221.83;78021;1301;3050059;-66
2024/02/03 02:17:40;;;;;;;12.40;4.50;;;;;;;0.39;81.72;99218.82;79221;1302;3012997;-68
2024/02/03 02:20:08;;;;;;;13.20;3.80;;;;;;;0.37;81.75;99224.38;79423;1296;3011897;-68
2024/02/03 02:22:36;;;;;;;7.50;2.90;;;;;;;0.34;82.54;99227.54;78391;1300;3051456;-70
2024/02/03 02:25:04;;;;;;;11.70;3.60;;;;;;;0.99;81.63;99226.32;79449;1296;3018803;-69
2024/02/03 02:27:31;;;;;;;12.50;3.90;;;;;;;1.39;80.24;99226.30;79365;1296;3011854;-74
2024/02/03 02:29:59;;;;;;;10.20;3.50;;;;;;;1.24;79.61;99229.15;78305;1299;3050070;-68
2024/02/03 02:32:25;;;;;;;9.70;3.80;;;;;;;1.28;79.28;99229.91;79684;1295;3012894;-68
2024/02/03 02:34:52;;;;;;;12.90;4.60;;;;;;;1.03;79.34;99229.86;79490;1295;3011675;-70
2024/02/03 02:37:20;;;;;;;16.40;5.00;;;;;;;0.77;80.39;99230.30;78299;1298;3029285;-68
2024/02/03 02:39:47;;;;;;;11.70;4.00;;;;;;;0.61;80.72;99223.13;79655;1295;3012907;-66
2024/02/03 02:42:14;;;;;;;10.50;3.80;;;;;;;0.38;81.92;99228.83;79656;1294;3012011;-66
2024/02/03 02:44:42;;;;;;;10.10;3.30;;;;;;;0.32;81.93;99234.64;78502;1298;3050684;-68
2024/02/03 02:47:09;;;;;;;5.40;2.30;;;;;;;0.15;83.10;99231.39;79508;1297;3018990;-72
2024/02/03 02:49:36;;;;;;;9.40;2.80;;;;;;;0.56;82.54;99226.85;79357;1299;3011673;-66
2024/02/03 02:52:04;;;;;;;9.20;3.30;;;;;;;1.33;80.42;99230.29;78110;1294;3025038;-69
2024/02/03 02:54:31;;;;;;;11.00;3.70;;;;;;;1.30;79.72;99225.34;79581;1298;3013576;-66
2024/02/03 02:56:57;;;;;;;9.00;3.40;;;;;;;0.98;80.02;99215.14;79527;1295;3012039;-69
2024/02/03 02:59:25;;;;;;;14.40;3.90;;;;;;;0.92;80.18;99217.69;78437;1297;3050295;-68
2024/02/03 03:01:52;;;;;;;13.00;4.30;;;;;;;0.64;81.13;99205.99;79753;1298;3012716;-69
2024/02/03 03:04:19;;;;;;;16.80;5.20;;;;;;;0.62;80.81;99197.93;79573;1297;3011208;-63
2024/02/03 03:06:46;;;;;;;12.90;4.00;;;;;;;0.47;80.78;99197.77;78315;1295;3025951;-67
2024/02/03 03:09:16;;;;;;;12.30;3.50;;;;;;;0.26;81.39;99198.25;79662;1298;3012885;-66
2024/02/03 03:11:43;;;;;;;10.10;3.50;;;;;;;0.06;82.66;99191.46;79731;1295;3011703;-71
2024/02/03 03:14:11;;;;;;;15.60;4.40;;;;;;;0.09;82.36;99195.18;78302;1296;3050270;-63
2024/02/03 03:16:38;;;;;;;10.90;2.40;;;;;;;0.39;83.10;99189.84;79691;1299;3012898;-71
2024/02/03 03:19:05;;;;;;;8.00;2.80;;;;;;;1.04;81.17;99193.27;79550;1300;3013077;-71
2024/02/03 03:21:33;;;;;;;11.90;3.20;;;;;;;1.24;79.77;99197.73;78355;1300;3026310;-68
2024/02/03 03:23:59;;;;;;;12.30;3.80;;;;;;;0.76;80.05;99183.96;79485;1298;3012695;-70
2024/02/03 03:26:26;;;;;;;7.90;2.90;;;;;;;0.63;80.52;99186.02;79461;1298;3011854;-68
2024/02/03 03:28:54;;;;;;;16.80;4.00;;;;;;;0.49;80.72;99181.70;78352;1298;3026343;-72
2024/02/03 03:31:21;;;;;;;11.80;3.50;;;;;;;0.29;81.30;99187.16;79511;1295;3013945;-71
2024/02/03 03:33:47;;;;;;;10.60;3.20;;;;;;;0.12;82.49;99175.14;79288;1297;3011683;-62
2024/02/03 03:36:15;;;;;;;6.40;2.40;;;;;;;0.07;82.48;99186.11;78215;1299;3026210;-66
2024/02/03 03:38:44;;;;;;;11.30;3.20;;;;;;;-0.01;82.40;99181.11;79561;1298;3013234;-67
2024/02/03 03:41:11;;;;;;;9.70;2.90;;;;;;;-0.01;82.86;99184.73;79247;1295;3011714;-69
2024/02/03 03:43:39;;;;;;;13.00;4.00;;;;;;;0.70;82.52;99183.42;78220;1296;3049976;-67
2024/02/03 03:46:09;;;;;;;9.10;3.00;;;;;;;1.09;80.36;99179.30;79710;1296;3012501;-71
2024/02/03 03:48:38;;;;;;;11.50;2.80;;;;;;;1.29;79.61;99179.84;79174;1298;3013658;-71
2024/02/03 03:51:04;;;;;;;12.60;4.10;;;;;;;1.08;79.30;99184.70;80137;1295;3013026;-69
2024/02/03 03:53:31;;;;;;;6.80;2.60;;;;;;;0.97;79.13;99182.73;79684;1295;3011722;-72
2024/02/03 09:29:26;;;;;;;14.60;5.40;;;;;;;0.90;78.63;98929.41;80620;1290;3013310;-72
2024/02/03 09:31:53;;;;;;;19.30;5.80;;;;;;;0.90;78.59;98931.52;79679;1290;3157160;-72
2024/02/03 09:34:20;;;;;;;15.90;5.50;;;;;;;0.87;78.69;98929.35;79757;1289;3011519;-72
2024/02/03 09:36:47;;;;;;;14.30;5.30;;;;;;;0.86;78.93;98919.02;78667;1291;3052082;-73
2024/02/03 09:39:14;;;;;;;20.40;5.60;;;;;;;0.86;78.93;98917.81;80006;1291;3013500;-69
2024/02/03 09:41:41;;;;;;;18.60;5.00;;;;;;;0.97;78.42;98924.23;79852;1288;3011461;-68
2024/02/03 09:44:08;;;;;;;14.50;4.00;;;;;;;0.86;79.20;98930.75;78620;1290;3026406;-73
2024/02/03 09:46:35;;;;;;;10.40;3.90;;;;;;;1.14;79.71;98905.77;79939;1293;3012968;-69
2024/02/03 09:49:02;;;;;;;13.20;4.10;;;;;;;1.57;79.06;98915.09;79863;1288;3011876;-69
2024/02/03 09:51:31;;;;;;;15.70;4.70;;;;;;;1.52;78.84;98903.68;78801;1291;3025969;-71
2024/02/03 09:53:58;;;;;;;12.40;3.80;;;;;;;1.47;79.22;98891.45;79968;1289;3012826;-71
2024/02/03 09:56:24;;;;;;;12.10;4.00;;;;;;;1.14;80.34;98880.57;79996;1288;3011705;-68
2024/02/03 09:58:52;;;;;;;14.70;5.00;;;;;;;1.00;81.30;98879.29;78715;1293;3049295;-67
2024/02/03 10:01:19;;;;;;;16.40;4.70;;;;;;;1.10;81.47;98870.36;80084;1291;3019156;-69
2024/02/03 10:03:55;;;;;;;14.80;5.20;;;;;;;1.15;80.85;98863.29;79997;1289;3013439;-69
2024/02/03 10:06:23;;;;;;;17.30;4.90;;;;;;;0.93;81.36;98872.75;78691;1292;3051824;-73
2024/02/03 10:08:56;;;;;;;13.50;5.10;;;;;;;0.62;82.39;98867.65;79964;1289;3013467;-74
2024/02/03 10:11:23;;;;;;;12.00;5.90;;;;;;;0.83;82.30;98865.84;78928;1288;3055405;-70
2024/02/03 10:14:02;;;;;;;15.50;4.90;;;;;;;0.75;82.73;98854.36;80083;1288;3018493;-67
2024/02/03 10:16:30;;;;;;;17.90;4.60;;;;;;;1.40;82.10;98862.99;79110;1289;3049939;-70
2024/02/03 10:18:57;;;;;;;11.90;4.70;;;;;;;1.77;80.70;98857.45;80350;1291;3013464;-67
2024/02/03 10:21:25;;;;;;;18.80;5.30;;;;;;;1.66;81.12;98841.23;79847;1289;3011635;-63
2024/02/03 10:23:53;;;;;;;14.00;4.80;;;;;;;1.73;81.49;98836.00;78687;1289;3050722;-67
2024/02/03 10:26:19;;;;;;;15.30;5.10;;;;;;;1.30;83.23;98827.94;79969;1288;3013084;-71
2024/02/03 10:28:46;;;;;;;15.00;5.40;;;;;;;1.25;84.36;98824.52;80061;1289;3013083;-68
2024/02/03 10:31:14;;;;;;;14.50;5.40;;;;;;;1.28;83.83;98818.02;78704;1289;3026906;-64
2024/02/03 10:33:40;;;;;;;14.30;4.60;;;;;;;1.06;84.38;98817.69;79915;1294;3013609;-71
2024/02/03 10:36:07;;;;;;;10.40;4.30;;;;;;;0.85;85.66;98818.16;79869;1294;3011971;-70
2024/02/03 10:38:35;;;;;;;9.90;3.50;;;;;;;0.50;87.44;98811.32;78939;1292;3026020;-69
2024/02/03 10:41:05;;;;;;;13.10;3.80;;;;;;;1.06;88.02;98795.27;80051;1289;3012727;-70
2024/02/03 10:43:34;;;;;;;13.20;4.00;;;;;;;1.51;86.23;98793.59;79460;1292;3011859;-67
2024/02/03 10:46:04;;;;;;;14.50;5.10;;;;;;;1.44;85.85;98785.55;79764;1289;3013719;-67
2024/02/03 10:48:34;;;;;;;13.80;4.40;;;;;;;1.12;86.91;98788.17;79574;1288;3011334;-67
2024/02/03 10:51:07;;;;;;;15.70;4.70;;;;;;;1.07;87.24;98770.75;80032;1292;3013683;-69
2024/02/03 10:53:38;;;;;;;14.80;4.90;;;;;;;0.83;87.96;98762.55;79062;1291;3068320;-68
2024/02/03 10:56:06;;;;;;;19.30;5.70;;;;;;;0.59;89.12;98754.16;80033;1291;3012142;-70
2024/02/03 10:58:34;;;;;;;17.10;4.90;;;;;;;0.59;89.81;98748.48;78685;1289;3055744;-66
2024/02/03 11:01:12;;;;;;;12.30;3.90;;;;;;;0.40;90.60;98751.30;79971;1289;3011691;-70
2024/02/03 11:03:40;;;;;;;13.90;3.80;;;;;;;0.87;90.18;98746.89;78749;1292;3050405;-67
2024/02/03 11:06:07;;;;;;;9.50;4.50;;;;;;;1.46;87.96;98751.30;80203;1292;3013226;-69
2024/02/03 11:08:34;;;;;;;14.90;4.70;;;;;;;1.12;87.52;98742.45;80273;1291;3011620;-69
2024/02/03 11:11:02;;;;;;;13.30;4.80;;;;;;;0.84;89.97;98744.58;78897;1292;3051565;-68
2024/02/03 11:13:30;;;;;;;13.60;4.30;;;;;;;0.53;91.24;98736.95;79855;1288;3021251;-67
2024/02/03 11:15:57;;;;;;;17.20;5.30;;;;;;;0.40;92.05;98728.73;79763;1289;3012898;-67
2024/02/03 11:18:26;;;;;;;14.50;5.30;;;;;;;0.45;92.79;98723.23;78619;1292;3049935;-70
2024/02/03 11:21:25;;;;;;;19.40;5.00;;;;;;;-128.00;-1.00;-1.00;76302;1288;4011959;-69
2024/02/03 11:23:54;;;;;;;12.90;5.10;;;;;;;-128.00;-1.00;-1.00;75702;1289;4058065;-69
2024/02/03 11:26:21;;;;;;;17.80;5.00;;;;;;;-128.00;-1.00;-1.00;76240;1292;4012429;-66
2024/02/03 11:28:48;;;;;;;15.00;4.90;;;;;;;-128.00;-1.00;-1.00;76163;1289;4012142;-67
2024/02/03 11:31:17;;;;;;;14.30;4.20;;;;;;;-24.91;72.52;78950.90;78573;1292;4014253;-64
2024/02/03 11:33:45;;;;;;;17.20;4.90;;;;;;;0.65;92.39;98690.36;79868;1289;3018578;-64
2024/02/03 11:36:12;;;;;;;16.00;6.30;;;;;;;0.42;95.19;98674.23;79693;1291;3011559;-66
2024/02/03 11:38:46;;;;;;;15.00;6.10;;;;;;;0.28;96.10;98668.44;78632;1292;3070452;-66
2024/02/03 11:41:14;;;;;;;18.20;7.70;;;;;;;0.52;95.46;98664.61;79929;1289;3012058;-68
2024/02/03 11:43:43;;;;;;;16.40;7.30;;;;;;;0.66;95.19;98658.96;78700;1292;3055999;-67
2024/02/03 11:46:10;;;;;;;21.50;7.10;;;;;;;0.66;94.82;98648.47;79905;1289;3012826;-70
2024/02/03 11:48:37;;;;;;;21.60;6.60;;;;;;;0.52;95.06;98647.71;79978;1289;3013350;-67
2024/02/03 11:51:06;;;;;;;18.70;6.40;;;;;;;0.38;95.65;98650.23;78538;1291;3027989;-67
2024/02/03 11:53:32;;;;;;;10.00;4.40;;;;;;;0.17;96.44;98643.34;79796;1292;3012718;-69
2024/02/03 11:56:00;;;;;;;15.20;6.50;;;;;;;0.37;96.66;98643.04;79959;1291;3013250;-67
2024/02/03 11:58:28;;;;;;;15.10;5.00;;;;;;;0.88;95.90;98622.55;78494;1291;3057222;-69
2024/02/03 12:01:12;;;;;;;16.50;5.20;;;;;;;0.67;96.33;98636.19;79865;1289;3012914;-72
2024/02/03 12:03:40;;;;;;;12.80;5.50;;;;;;;0.46;96.51;98636.05;78356;1294;3048536;-69
2024/02/03 12:06:10;;;;;;;18.40;6.70;;;;;;;0.14;97.09;98623.09;79808;1292;3013452;-69
2024/02/03 12:08:38;;;;;;;19.50;5.80;;;;;;;0.03;98.10;98621.71;79280;1294;3011962;-69
2024/02/03 12:11:05;;;;;;;23.60;6.70;;;;;;;0.41;97.98;98610.66;80809;1292;3018654;-68
2024/02/03 12:13:40;;;;;;;20.30;7.70;;;;;;;0.39;97.03;98618.34;79663;1288;3012861;-65
2024/02/03 12:16:10;;;;;;;26.30;8.30;;;;;;;0.27;97.04;98615.96;78628;1289;3049664;-72
2024/02/03 12:18:38;;;;;;;23.60;7.40;;;;;;;0.23;97.61;98609.38;80079;1291;3012690;-65
2024/02/03 12:21:09;;;;;;;22.60;5.90;;;;;;;0.10;98.21;98604.27;78807;1288;3026581;-68
2024/02/03 12:23:36;;;;;;;9.60;4.10;;;;;;;0.03;99.10;98597.42;79693;1290;3013644;-66
2024/02/03 12:26:04;;;;;;;19.50;6.70;;;;;;;0.68;97.32;98583.06;79348;1289;3012981;-66
2024/02/03 12:28:31;;;;;;;17.20;5.40;;;;;;;0.53;95.89;98588.73;79777;1294;3012985;-71
2024/02/03 12:30:58;;;;;;;16.50;6.50;;;;;;;0.45;96.25;98584.19;79959;1289;3011768;-70
2024/02/03 12:33:27;;;;;;;14.40;5.40;;;;;;;0.37;96.27;98594.96;78591;1292;3049528;-65
2024/02/03 12:35:55;;;;;;;10.40;4.80;;;;;;;0.12;97.64;98596.98;80262;1288;3018578;-76
2024/02/03 12:38:21;;;;;;;16.50;5.20;;;;;;;0.09;99.52;98573.99;79969;1292;3011562;-69
2024/02/03 12:40:50;;;;;;;13.80;6.40;;;;;;;0.49;99.57;98569.94;78867;1292;3052797;-65
2024/02/03 12:43:16;;;;;;;13.60;5.70;;;;;;;0.72;98.62;98590.34;79947;1289;3013617;-71
2024/02/03 12:45:43;;;;;;;15.80;6.30;;;;;;;0.57;98.08;98571.73;79911;1289;3011320;-69
2024/02/03 12:48:11;;;;;;;13.40;5.50;;;;;;;0.32;98.97;98580.32;78416;1294;3028144;-67
2024/02/03 12:50:39;;;;;;;12.40;4.60;;;;;;;0.50;98.97;98580.23;79810;1294;3018458;-67
2024/02/03 12:53:06;;;;;;;10.80;5.20;;;;;;;0.48;99.36;98567.20;79996;1289;3013883;-72
2024/02/03 12:55:33;;;;;;;13.40;5.00;;;;;;;0.69;98.91;98565.64;79361;1294;3051946;-71
2024/02/03 12:58:00;;;;;;;13.60;5.60;;;;;;;0.58;98.81;98561.67;79785;1291;3019405;-74
2024/02/03 13:00:27;;;;;;;10.80;5.10;;;;;;;0.51;99.60;98551.77;79680;1289;3013483;-69
2024/02/03 13:02:55;;;;;;;16.70;6.60;;;;;;;0.35;100.00;98535.75;78636;1294;3026399;-73
2024/02/03 13:05:22;;;;;;;16.20;5.60;;;;;;;0.25;100.00;98532.33;79905;1294;3013214;-69
2024/02/03 13:07:49;;;;;;;21.20;6.00;;;;;;;0.53;100.00;98536.54;79662;1294;3011733;-65
2024/02/03 13:10:17;;;;;;;18.90;6.00;;;;;;;0.79;99.94;98522.37;78651;1292;3026674;-68
2024/02/03 13:12:44;;;;;;;16.40;6.70;;;;;;;0.83;99.50;98517.40;80049;1290;3013924;-71
2024/02/03 13:15:11;;;;;;;17.70;7.30;;;;;;;0.63;99.54;98503.80;80000;1291;3011576;-69
2024/02/03 13:17:39;;;;;;;19.10;6.00;;;;;;;0.46;99.87;98508.67;80335;1288;3049439;-70
2024/02/03 13:20:07;;;;;;;24.90;6.30;;;;;;;0.28;99.96;98503.46;80034;1291;3018590;-69
2024/02/03 13:22:33;;;;;;;19.50;7.40;;;;;;;0.67;99.97;98490.70;80026;1288;3013340;-67
2024/02/03 13:25:02;;;;;;;17.10;6.30;;;;;;;1.13;98.22;98490.23;78794;1289;3053791;-67
2024/02/03 13:27:30;;;;;;;17.60;5.90;;;;;;;0.82;97.53;98474.66;79846;1292;3012897;-69
2024/02/03 13:29:56;;;;;;;15.10;5.90;;;;;;;0.74;97.11;98480.45;79837;1289;3011662;-67
2024/02/03 13:32:24;;;;;;;14.60;6.30;;;;;;;0.61;97.54;98472.00;78571;1289;3048430;-74
2024/02/03 13:34:51;;;;;;;17.40;6.30;;;;;;;0.60;97.83;98470.10;79782;1292;3013012;-70
2024/02/03 13:37:17;;;;;;;17.30;5.90;;;;;;;0.76;97.35;98462.13;79966;1289;3011782;-70
2024/02/03 13:39:45;;;;;;;19.10;6.50;;;;;;;0.98;95.82;98460.27;78713;1291;3025162;-68
2024/02/03 13:42:12;;;;;;;13.90;5.50;;;;;;;0.98;95.00;98458.56;79967;1291;3018611;-72
2024/02/03 13:44:38;;;;;;;13.20;6.30;;;;;;;0.90;95.03;98444.20;79923;1288;3011518;-70
2024/02/03 13:47:07;;;;;;;12.10;6.00;;;;;;;0.69;95.66;98449.78;78672;1290;3028650;-70
2024/02/03 13:49:34;;;;;;;12.70;4.50;;;;;;;0.56;96.74;98437.16;79951;1290;3013716;-72
2024/02/03 13:52:02;;;;;;;17.50;5.50;;;;;;;0.99;96.35;98427.82;79977;1289;3011891;-70
2024/02/03 13:54:30;;;;;;;9.70;4.60;;;;;;;1.16;93.95;98439.57;78770;1292;3053508;-71
2024/02/03 13:56:57;;;;;;;13.40;5.00;;;;;;;0.94;94.64;98432.14;80008;1289;3012768;-67
2024/02/03 13:59:27;;;;;;;10.80;5.20;;;;;;;0.91;95.58;98445.90;79917;1289;3013139;-68
2024/02/03 14:01:55;;;;;;;9.70;4.70;;;;;;;0.92;95.41;98446.72;78636;1289;3049699;-70
2024/02/03 14:04:22;;;;;;;11.00;4.70;;;;;;;-50.72;56.95;59059.45;78375;1292;3013124;-68
2024/02/03 14:06:49;;;;;;;11.80;5.00;;;;;;;-128.00;-1.00;-1.00;76824;1295;4011083;-72
2024/02/03 14:09:17;;;;;;;14.50;5.10;;;;;;;-128.00;-1.00;-1.00;76751;1290;4012252;-69
2024/02/03 14:11:44;;;;;;;9.70;4.50;;;;;;;-128.00;-1.00;-1.00;76993;1288;4010212;-67
2024/02/03 14:14:12;;;;;;;6.50;3.60;;;;;;;-128.00;-1.00;-1.00;76963;1289;4012058;-68
2024/02/03 14:16:41;;;;;;;10.20;5.30;;;;;;;-128.00;-1.00;-1.00;76570;1290;4012745;-67
2024/02/03 14:19:07;;;;;;;7.70;3.40;;;;;;;-128.00;-1.00;-1.00;77081;1291;4012914;-69
2024/02/03 14:21:34;;;;;;;7.60;4.00;;;;;;;-128.00;-1.00;-1.00;76983;1289;4010483;-68
2024/02/03 14:24:05;;;;;;;9.20;4.40;;;;;;;-128.00;-1.00;-1.00;76390;1292;4012214;-66
2024/02/03 14:26:32;;;;;;;11.80;5.20;;;;;;;-128.00;-1.00;-1.00;76829;1290;4010847;-67
2024/02/03 14:28:58;;;;;;;12.50;4.90;;;;;;;-128.00;-1.00;-1.00;76967;1289;4010869;-63
2024/02/03 14:31:27;;;;;;;13.20;4.80;;;;;;;-128.00;-1.00;-1.00;75962;1291;4017370;-66
2024/02/03 14:33:54;;;;;;;13.00;5.80;;;;;;;-128.00;-1.00;-1.00;76743;1289;4011291;-65
2024/02/03 14:36:20;;;;;;;10.50;3.80;;;;;;;-128.00;-1.00;-1.00;76949;1292;4012166;-67
2024/02/03 14:38:49;;;;;;;11.30;5.00;;;;;;;-128.00;-1.00;-1.00;76383;1294;4011979;-66
2024/02/03 14:41:16;;;;;;;8.20;4.30;;;;;;;-128.00;-1.00;-1.00;76825;1292;4010919;-64
2024/02/03 14:43:42;;;;;;;14.30;4.60;;;;;;;-128.00;-1.00;-1.00;76909;1292;4010888;-67
2024/02/03 14:46:11;;;;;;;8.00;3.70;;;;;;;-128.00;-1.00;-1.00;76353;1292;4010906;-68
2024/02/03 14:48:37;;;;;;;9.30;4.10;;;;;;;-128.00;-1.00;-1.00;76919;1289;4011414;-69
2024/02/03 14:51:04;;;;;;;8.00;2.80;;;;;;;-128.00;-1.00;-1.00;77155;1292;4011117;-68
2024/02/03 14:53:33;;;;;;;7.50;3.70;;;;;;;-128.00;-1.00;-1.00;76473;1289;4011478;-70
2024/02/03 14:56:00;;;;;;;14.40;4.90;;;;;;;-128.00;-1.00;-1.00;76939;1289;4010240;-67
2024/02/03 14:58:27;;;;;;;7.20;3.60;;;;;;;-128.00;-1.00;-1.00;77070;1292;4010399;-66
2024/02/03 15:00:56;;;;;;;10.90;5.00;;;;;;;-128.00;-1.00;-1.00;76287;1289;4012532;-69
2024/02/03 15:03:22;;;;;;;6.30;3.60;;;;;;;-128.00;-1.00;-1.00;77064;1289;4012039;-67
2024/02/03 15:05:50;;;;;;;11.30;3.90;;;;;;;-128.00;-1.00;-1.00;76868;1292;4012006;-67
2024/02/03 15:08:18;;;;;;;10.00;3.80;;;;;;;-128.00;-1.00;-1.00;76466;1289;4011900;-68
2024/02/03 15:10:45;;;;;;;7.20;3.80;;;;;;;-128.00;-1.00;-1.00;76780;1294;4011994;-69
2024/02/03 15:13:11;;;;;;;9.10;4.10;;;;;;;-128.00;-1.00;-1.00;76644;1289;4011159;-66
2024/02/03 15:15:40;;;;;;;7.40;3.80;;;;;;;-128.00;-1.00;-1.00;76490;1292;4011414;-67
2024/02/03 15:18:08;;;;;;;7.50;3.80;;;;;;;-128.00;-1.00;-1.00;77110;1292;4012163;-69
2024/02/03 15:20:35;;;;;;;10.20;4.20;;;;;;;-128.00;-1.00;-1.00;76990;1292;4010793;-67
2024/02/03 15:23:04;;;;;;;7.40;4.30;;;;;;;-128.00;-1.00;-1.00;76135;1292;4012545;-67
2024/02/03 15:25:31;;;;;;;8.70;3.80;;;;;;;-128.00;-1.00;-1.00;76898;1295;4012542;-68
2024/02/03 15:27:58;;;;;;;10.20;4.40;;;;;;;-128.00;-1.00;-1.00;76962;1288;4011267;-69
2024/02/03 15:30:26;;;;;;;10.10;4.70;;;;;;;-128.00;-1.00;-1.00;76359;1289;4018873;-68
2024/02/03 15:32:53;;;;;;;9.90;4.30;;;;;;;-128.00;-1.00;-1.00;76946;1288;4011231;-66
2024/02/03 15:35:19;;;;;;;13.40;6.70;;;;;;;-128.00;-1.00;-1.00;76849;1292;4011661;-66
2024/02/03 15:37:48;;;;;;;6.10;3.90;;;;;;;-128.00;-1.00;-1.00;76281;1291;4012729;-69
2024/02/03 15:40:16;;;;;;;7.40;4.30;;;;;;;-128.00;-1.00;-1.00;76884;1288;4011930;-71
2024/02/03 15:42:42;;;;;;;10.80;5.00;;;;;;;-128.00;-1.00;-1.00;77126;1294;4010611;-67
2024/02/03 15:45:11;;;;;;;10.80;4.30;;;;;;;-128.00;-1.00;-1.00;76300;1292;4012916;-68
2024/02/03 15:47:38;;;;;;;8.50;3.60;;;;;;;-128.00;-1.00;-1.00;76933;1288;4013470;-68
2024/02/03 15:50:05;;;;;;;10.50;4.10;;;;;;;-128.00;-1.00;-1.00;76960;1288;4010647;-69
2024/02/03 15:52:34;;;;;;;10.60;4.40;;;;;;;-128.00;-1.00;-1.00;76335;1291;4013263;-68
2024/02/03 15:55:02;;;;;;;9.80;4.40;;;;;;;-128.00;-1.00;-1.00;77044;1289;4012059;-69
2024/02/03 15:57:29;;;;;;;8.10;4.20;;;;;;;-128.00;-1.00;-1.00;76993;1292;4012389;-67
2024/02/03 15:59:58;;;;;;;9.70;4.50;;;;;;;-128.00;-1.00;-1.00;76072;1294;4017747;-68
2024/02/03 16:02:27;;;;;;;8.00;4.50;;;;;;;-128.00;-1.00;-1.00;76987;1289;4011464;-67
2024/02/03 16:04:57;;;;;;;9.20;3.70;;;;;;;-128.00;-1.00;-1.00;76310;1290;4017830;-68
2024/02/03 16:07:24;;;;;;;8.70;4.20;;;;;;;-128.00;-1.00;-1.00;76965;1289;4011965;-67
2024/02/03 16:09:52;;;;;;;9.90;4.50;;;;;;;-128.00;-1.00;-1.00;76986;1295;4011996;-69
2024/02/03 16:12:22;;;;;;;8.90;4.50;;;;;;;-128.00;-1.00;-1.00;76448;1292;4011868;-68
2024/02/03 16:14:48;;;;;;;7.30;4.50;;;;;;;-128.00;-1.00;-1.00;76714;1292;4011900;-67
2024/02/03 16:17:15;;;;;;;8.80;4.60;;;;;;;-128.00;-1.00;-1.00;76938;1291;4010757;-68
2024/02/03 16:19:45;;;;;;;7.00;3.90;;;;;;;-128.00;-1.00;-1.00;76137;1288;4020123;-67
2024/02/03 16:22:11;;;;;;;7.10;3.90;;;;;;;-128.00;-1.00;-1.00;77075;1289;4012136;-66
2024/02/03 16:24:38;;;;;;;8.00;4.10;;;;;;;-128.00;-1.00;-1.00;77163;1292;4012706;-71
2024/02/03 16:27:07;;;;;;;9.30;4.60;;;;;;;-128.00;-1.00;-1.00;76579;1288;4018251;-68
2024/02/03 16:29:33;;;;;;;8.10;5.10;;;;;;;-128.00;-1.00;-1.00;77457;1289;4012664;-67
2024/02/03 16:32:00;;;;;;;8.00;4.50;;;;;;;-128.00;-1.00;-1.00;77014;1292;4010830;-69
2024/02/03 16:34:29;;;;;;;8.20;3.80;;;;;;;-128.00;-1.00;-1.00;76276;1295;4012767;-67
2024/02/03 16:36:55;;;;;;;8.70;4.90;;;;;;;-128.00;-1.00;-1.00;77133;1291;4010897;-66
2024/02/03 16:39:23;;;;;;;9.10;5.10;;;;;;;-128.00;-1.00;-1.00;77024;1291;4011457;-71
2024/02/03 16:41:53;;;;;;;9.00;5.00;;;;;;;-128.00;-1.00;-1.00;76360;1292;4012679;-64
2024/02/03 16:44:20;;;;;;;8.80;4.80;;;;;;;-128.00;-1.00;-1.00;77004;1291;4013955;-66
2024/02/03 16:46:46;;;;;;;8.80;5.00;;;;;;;-128.00;-1.00;-1.00;76985;1289;4011971;-68
2024/02/03 16:49:15;;;;;;;10.00;4.70;;;;;;;-128.00;-1.00;-1.00;76397;1292;4018709;-69
2024/02/03 16:51:44;;;;;;;7.20;4.10;;;;;;;-128.00;-1.00;-1.00;77210;1287;4011926;-68
2024/02/03 16:54:14;;;;;;;6.40;4.00;;;;;;;-128.00;-1.00;-1.00;77009;1289;4010417;-68
2024/02/03 16:56:43;;;;;;;9.40;5.70;;;;;;;-128.00;-1.00;-1.00;76367;1292;4018540;-69
2024/02/03 16:59:09;;;;;;;7.60;4.70;;;;;;;-128.00;-1.00;-1.00;77135;1292;4011992;-68
2024/02/03 17:01:36;;;;;;;11.70;6.10;;;;;;;-128.00;-1.00;-1.00;77044;1290;4012175;-68
2024/02/03 17:04:05;;;;;;;11.00;5.00;;;;;;;-128.00;-1.00;-1.00;76395;1292;4012745;-68
2024/02/03 17:06:32;;;;;;;10.00;4.50;;;;;;;-128.00;-1.00;-1.00;76984;1288;4013226;-70
2024/02/03 17:08:59;;;;;;;10.90;5.00;;;;;;;-128.00;-1.00;-1.00;76939;1290;4011273;-67
2024/02/03 17:11:27;;;;;;;9.70;5.20;;;;;;;-128.00;-1.00;-1.00;76473;1292;4018049;-67